Time;durP1;ratioP1;P1;durP2;ratioP2;P2;SDS_P1;SDS_P2;PMS_P1;PMS_P2;Temp;Humidity;BMP_temperature;BMP_pressure;BME280_temperature;BME280_humidity;BME280_pressure;Samples;Min_cycle;Max_cycle;Signal;HPM_P1;HPM_P2
2022/06/23 00:00:35;;;;;;;8.63;6.90;;;;;;;13.08;100.00;100711.78;4972245;28;20699;-79
2022/06/23 00:03:04;;;;;;;8.07;6.20;;;;;;;13.10;100.00;100703.78;4969775;28;20042;-79
2022/06/23 00:05:39;;;;;;;8.60;6.93;;;;;;;13.04;100.00;100707.50;4972752;28;20048;-78
2022/06/23 00:08:11;;;;;;;10.02;6.78;;;;;;;12.96;100.00;100705.09;4975057;28;20035;-78
2022/06/23 00:10:49;;;;;;;9.30;8.02;;;;;;;12.99;100.00;100693.50;4965891;28;20042;-78
2022/06/23 00:13:34;;;;;;;10.38;6.40;;;;;;;12.89;100.00;100700.88;4972906;28;20050;-79
2022/06/23 00:16:02;;;;;;;9.45;6.95;;;;;;;12.87;100.00;100700.06;4989678;28;20049;-78
2022/06/23 00:18:36;;;;;;;10.68;7.95;;;;;;;12.90;100.00;100696.44;4960489;28;20038;-78
2022/06/23 00:21:30;;;;;;;7.25;6.18;;;;;;;12.85;100.00;100707.16;4973852;28;20512;-78
2022/06/23 00:24:14;;;;;;;7.53;6.35;;;;;;;12.80;100.00;100706.44;4973454;28;20065;-79
2022/06/23 00:26:41;;;;;;;11.13;6.95;;;;;;;12.76;100.00;100703.91;4989674;28;20042;-78
2022/06/23 00:29:13;;;;;;;10.50;6.78;;;;;;;12.59;100.00;100709.69;5050743;23;20053;-81
2022/06/23 00:31:43;;;;;;;8.20;6.63;;;;;;;12.57;100.00;100711.53;4959340;28;20347;-81
2022/06/23 00:34:14;;;;;;;10.05;6.90;;;;;;;12.49;100.00;100716.16;4941710;28;20054;-81
2022/06/23 00:37:00;;;;;;;9.95;7.45;;;;;;;12.48;100.00;100719.72;4972325;28;20133;-81
2022/06/23 00:39:59;;;;;;;9.65;7.38;;;;;;;12.40;100.00;100712.84;4955946;28;20048;-82
2022/06/23 00:42:34;;;;;;;7.88;6.80;;;;;;;12.35;100.00;100712.09;4972443;28;20050;-81
2022/06/23 00:45:10;;;;;;;11.07;7.55;;;;;;;12.32;100.00;100714.84;4969754;28;20038;-81
2022/06/23 00:47:50;;;;;;;9.68;6.65;;;;;;;12.28;100.00;100704.38;4973861;28;20483;-81
2022/06/23 00:50:34;;;;;;;10.77;7.43;;;;;;;12.28;100.00;100713.19;4956002;28;20414;-81
2022/06/23 00:53:15;;;;;;;10.73;7.70;;;;;;;12.22;100.00;100710.69;4958120;28;20053;-82
2022/06/23 00:56:14;;;;;;;8.75;6.55;;;;;;;12.17;100.00;100720.53;4969077;28;20053;-81
2022/06/23 00:58:56;;;;;;;9.18;6.97;;;;;;;12.08;100.00;100726.94;4967042;28;20510;-81
2022/06/23 01:01:34;;;;;;;10.55;7.18;;;;;;;12.09;100.00;100727.81;4943816;28;20085;-81
2022/06/23 01:04:06;;;;;;;9.35;6.85;;;;;;;12.07;100.00;100722.56;4972077;28;20046;-81
2022/06/23 01:06:40;;;;;;;10.93;7.20;;;;;;;12.01;100.00;100712.09;4958341;28;20105;-81
2022/06/23 01:09:13;;;;;;;;;;;;;;;12.01;100.00;100720.06;4957612;28;20041;-82
2022/06/23 01:11:46;;;;;;;8.90;7.20;;;;;;;12.01;100.00;100722.69;4941798;28;19983;-81
2022/06/23 01:14:38;;;;;;;8.50;7.17;;;;;;;12.04;100.00;100716.47;4958610;28;20121;-82
2022/06/23 01:17:14;;;;;;;9.02;7.00;;;;;;;11.95;100.00;100720.22;4974185;28;20058;-81
2022/06/23 01:20:02;;;;;;;10.00;7.47;;;;;;;11.94;100.00;100721.13;4927979;28;20039;-81
2022/06/23 01:22:38;;;;;;;9.45;6.97;;;;;;;11.88;100.00;100716.00;4949791;28;20034;-80
2022/06/23 01:25:29;;;;;;;12.93;8.13;;;;;;;11.93;100.00;100727.31;4983274;28;20042;-80
2022/06/23 01:28:17;;;;;;;11.57;8.15;;;;;;;11.86;100.00;100719.59;4975257;28;20133;-81
2022/06/23 01:31:23;;;;;;;12.48;8.82;;;;;;;11.80;100.00;100717.97;4937688;28;20039;-81
2022/06/23 01:33:57;;;;;;;10.05;7.55;;;;;;;11.75;100.00;100717.16;4971070;28;20052;-81
2022/06/23 01:36:30;;;;;;;10.77;7.65;;;;;;;11.71;100.00;100712.84;4961945;28;20137;-81
2022/06/23 01:39:03;;;;;;;10.17;8.07;;;;;;;11.63;100.00;100718.34;4944531;28;20038;-81
2022/06/23 01:41:37;;;;;;;10.52;7.32;;;;;;;11.56;100.00;100724.66;4953924;28;20046;-81
2022/06/23 01:44:08;;;;;;;11.73;7.55;;;;;;;11.50;100.00;100727.44;4947062;28;20584;-80
2022/06/23 01:46:38;;;;;;;10.00;7.63;;;;;;;11.47;100.00;100728.41;4945928;28;20038;-81
2022/06/23 01:49:14;;;;;;;11.95;8.70;;;;;;;11.48;100.00;100739.84;4946668;28;20038;-81
2022/06/23 01:51:53;;;;;;;10.18;8.02;;;;;;;11.44;100.00;100741.72;4962347;28;20050;-81
2022/06/23 01:54:20;;;;;;;10.80;7.93;;;;;;;11.34;100.00;100737.50;4952550;28;20088;-81
2022/06/23 01:57:22;;;;;;;10.05;7.57;;;;;;;11.28;100.00;100740.31;4961643;28;20041;-81
2022/06/23 02:00:07;;;;;;;11.90;8.68;;;;;;;11.27;100.00;100747.38;4951655;28;20042;-81
2022/06/23 02:02:42;;;;;;;11.48;9.15;;;;;;;11.20;100.00;100750.19;4975526;28;20046;-81
2022/06/23 02:05:31;;;;;;;9.70;7.45;;;;;;;11.12;100.00;100750.34;4958845;28;20245;-81
2022/06/23 02:08:05;;;;;;;11.00;7.35;;;;;;;11.07;100.00;100753.97;4980158;28;20042;-81
2022/06/23 02:10:38;;;;;;;10.50;8.27;;;;;;;11.09;100.00;100749.53;4959436;28;20047;-81
2022/06/23 02:13:07;;;;;;;10.85;8.32;;;;;;;11.07;100.00;100746.03;4949791;28;20042;-81
2022/06/23 02:15:55;;;;;;;11.55;8.77;;;;;;;11.10;100.00;100748.63;4944376;28;20042;-80
2022/06/23 02:18:28;;;;;;;9.27;7.28;;;;;;;11.02;100.00;100745.28;4961229;28;20042;-80
2022/06/23 02:20:58;;;;;;;10.90;9.23;;;;;;;11.01;100.00;100747.03;4991085;28;20073;-81
2022/06/23 02:23:38;;;;;;;9.88;7.70;;;;;;;11.04;100.00;100749.63;4975511;28;20526;-81
2022/06/23 02:26:16;;;;;;;12.68;8.27;;;;;;;10.99;100.00;100757.66;4941418;28;20534;-81
2022/06/23 02:29:19;;;;;;;10.43;8.00;;;;;;;10.95;100.00;100769.19;4957696;28;20046;-81
2022/06/23 02:31:56;;;;;;;10.23;7.50;;;;;;;10.88;100.00;100772.00;4954423;28;20090;-81
2022/06/23 02:34:29;;;;;;;10.50;8.20;;;;;;;10.88;100.00;100766.72;4958677;28;20057;-81
2022/06/23 02:37:04;;;;;;;9.32;7.55;;;;;;;10.86;100.00;100771.16;4947208;28;20404;-81
2022/06/23 02:39:45;;;;;;;9.13;7.82;;;;;;;10.79;100.00;100774.81;4957660;28;20041;-81
2022/06/23 02:42:21;;;;;;;10.80;7.75;;;;;;;10.79;100.00;100774.81;4961773;28;20042;-81
2022/06/23 02:45:07;;;;;;;10.50;7.75;;;;;;;10.73;100.00;100770.50;4992593;28;20419;-81
2022/06/23 02:47:58;;;;;;;11.23;8.73;;;;;;;10.73;100.00;100780.22;4979231;28;20084;-81
2022/06/23 02:50:40;;;;;;;10.75;8.15;;;;;;;10.67;100.00;100776.78;4949166;28;20038;-81
2022/06/23 02:53:22;;;;;;;11.65;8.38;;;;;;;10.64;100.00;100771.56;4959770;28;20135;-80
2022/06/23 02:55:52;;;;;;;10.98;7.82;;;;;;;10.59;100.00;100773.41;4956145;28;20050;-80
2022/06/23 02:58:43;;;;;;;12.43;8.20;;;;;;;10.56;100.00;100776.13;4959815;28;20038;-80
2022/06/23 03:01:27;;;;;;;10.70;8.23;;;;;;;10.56;100.00;100770.84;4954141;28;20043;-80
2022/06/23 03:04:04;;;;;;;12.33;8.60;;;;;;;10.55;100.00;100782.31;4944824;28;20042;-80
2022/06/23 03:06:44;;;;;;;12.82;8.75;;;;;;;10.54;100.00;100783.22;4958693;28;20042;-80
2022/06/23 03:09:17;;;;;;;10.88;8.50;;;;;;;10.56;100.00;100791.09;4970111;28;20042;-80
2022/06/23 03:12:02;;;;;;;10.73;8.25;;;;;;;10.53;100.00;100794.69;4963073;28;20062;-81
2022/06/23 03:14:51;;;;;;;10.73;7.78;;;;;;;10.54;100.00;100799.06;4972967;28;20046;-80
2022/06/23 03:17:25;;;;;;;11.20;8.00;;;;;;;10.56;100.00;100797.25;4952252;28;20049;-80
2022/06/23 03:20:04;;;;;;;;;;;;;;;10.51;100.00;100796.47;4958429;28;20033;-80
2022/06/23 03:22:47;;;;;;;9.73;8.05;;;;;;;10.52;100.00;100807.91;4958484;28;20303;-80
2022/06/23 03:25:20;;;;;;;11.88;8.13;;;;;;;10.50;100.00;100807.06;4968347;28;20045;-80
2022/06/23 03:28:00;;;;;;;13.10;8.52;;;;;;;10.49;100.00;100806.19;4957839;28;20056;-81
2022/06/23 03:30:37;;;;;;;11.65;8.57;;;;;;;10.55;100.00;100797.28;4954769;28;20077;-80
2022/06/23 03:33:17;;;;;;;12.77;9.23;;;;;;;10.61;100.00;100795.41;4943123;28;20476;-80
2022/06/23 03:35:52;;;;;;;11.13;8.68;;;;;;;10.63;100.00;100790.97;4964683;28;20034;-80
2022/06/23 03:41:36;;;;;;;13.05;8.35;;;;;;;10.65;100.00;100794.44;4956565;28;20322;-81
2022/06/23 03:44:09;;;;;;;12.10;8.30;;;;;;;10.69;100.00;100795.28;4957588;28;20970;-81
2022/06/23 03:46:40;;;;;;;11.20;8.35;;;;;;;10.72;100.00;100792.56;4970555;28;20042;-81
2022/06/23 03:49:36;;;;;;;13.18;9.32;;;;;;;10.70;100.00;100791.72;4945023;28;20047;-81
2022/06/23 03:52:13;;;;;;;16.30;9.85;;;;;;;10.70;100.00;100795.25;4933421;28;20045;-81
2022/06/23 03:54:54;;;;;;;10.95;8.35;;;;;;;10.67;100.00;100795.28;4964665;28;20408;-81
2022/06/23 03:57:33;;;;;;;10.77;8.20;;;;;;;10.76;100.00;100809.22;4974014;28;20080;-81
2022/06/23 04:00:19;;;;;;;11.13;7.85;;;;;;;10.82;100.00;100811.75;4936901;28;20049;-82
2022/06/23 04:02:50;;;;;;;9.50;7.97;;;;;;;10.78;100.00;100810.94;4957063;28;20045;-81
2022/06/23 04:05:22;;;;;;;9.45;7.65;;;;;;;10.85;100.00;100817.88;4955599;28;20046;-81
2022/06/23 04:07:59;;;;;;;11.65;9.05;;;;;;;10.85;100.00;100817.00;4941736;28;20046;-81
2022/06/23 04:10:41;;;;;;;11.45;9.02;;;;;;;10.87;100.00;100820.47;4974759;28;20093;-81
2022/06/23 04:13:36;;;;;;;10.38;7.78;;;;;;;10.91;100.00;100819.50;4958056;28;20057;-81
2022/06/23 04:16:06;;;;;;;;;;;;;;;10.96;100.00;100826.44;4930233;28;20054;-81
2022/06/23 04:18:33;;;;;;;11.45;8.15;;;;;;;11.01;100.00;100826.34;4956627;28;20277;-81
2022/06/23 04:21:02;;;;;;;11.68;8.88;;;;;;;11.08;100.00;100827.09;4956138;28;21521;-81
2022/06/23 04:23:35;;;;;;;11.20;9.40;;;;;;;11.12;100.00;100820.88;4941605;28;20043;-81
2022/06/23 04:26:07;;;;;;;12.38;8.73;;;;;;;11.19;100.00;100822.50;4970619;28;20069;-81
2022/06/23 04:28:36;;;;;;;10.93;9.00;;;;;;;11.27;100.00;100820.56;4949916;28;20097;-81
2022/06/23 04:31:05;;;;;;;12.27;9.60;;;;;;;11.31;100.00;100816.06;4954235;28;20042;-82
2022/06/23 04:33:38;;;;;;;12.70;8.25;;;;;;;11.32;100.00;100812.50;4953193;28;20038;-81
2022/06/23 04:36:05;;;;;;;11.27;9.65;;;;;;;11.37;100.00;100816.81;4947175;28;20055;-82
2022/06/23 04:38:44;;;;;;;15.27;9.27;;;;;;;11.44;100.00;100810.50;4944146;29;20067;-81
2022/06/23 04:41:20;;;;;;;12.52;9.00;;;;;;;11.53;100.00;100820.88;4957504;28;20047;-81
2022/06/23 04:43:55;;;;;;;10.77;8.35;;;;;;;11.62;100.00;100826.88;4941520;28;20043;-81
2022/06/23 04:46:27;;;;;;;;;;;;;;;11.68;100.00;100830.22;4957099;28;20042;-81
2022/06/23 04:49:13;;;;;;;12.93;8.57;;;;;;;11.76;100.00;100830.94;4952455;28;19937;-81
2022/06/23 04:51:47;;;;;;;11.32;8.45;;;;;;;11.85;100.00;100829.88;4955513;28;20038;-81
2022/06/23 04:54:19;;;;;;;12.00;9.30;;;;;;;11.95;100.00;100836.72;4936580;28;20046;-81
2022/06/23 04:57:14;;;;;;;12.65;9.68;;;;;;;12.12;100.00;100836.31;4938351;28;20473;-81
2022/06/23 04:59:49;;;;;;;12.43;9.73;;;;;;;12.19;100.00;100840.56;4930472;28;20051;-82
2022/06/23 05:02:32;;;;;;;13.73;9.60;;;;;;;12.34;100.00;100842.81;4942843;28;20049;-81
2022/06/23 05:05:18;;;;;;;12.25;9.82;;;;;;;12.50;100.00;100845.09;4953643;28;20476;-81
2022/06/23 05:07:59;;;;;;;11.77;9.38;;;;;;;12.52;100.00;100849.44;4957556;28;20045;-82
2022/06/23 05:10:37;;;;;;;15.05;9.40;;;;;;;12.65;100.00;100839.41;4959792;28;20137;-81
2022/06/23 05:13:07;;;;;;;11.65;8.63;;;;;;;12.79;100.00;100837.28;4959260;28;20042;-81
2022/06/23 05:15:42;;;;;;;12.80;9.57;;;;;;;13.10;100.00;100839.94;4932733;28;20459;-81
2022/06/23 05:18:22;;;;;;;13.57;9.38;;;;;;;13.64;100.00;100839.28;4993576;28;20057;-81
2022/06/23 05:20:52;;;;;;;8.90;7.00;;;;;;;14.95;100.00;100846.53;4991443;28;20065;-81
2022/06/23 05:23:39;;;;;;;7.10;5.72;;;;;;;15.27;100.00;100848.91;4977112;28;20038;-81
2022/06/23 05:26:12;;;;;;;7.18;6.45;;;;;;;15.34;100.00;100844.22;4972494;28;20057;-81
2022/06/23 05:28:41;;;;;;;7.00;5.72;;;;;;;15.37;100.00;100836.97;4950312;28;20669;-82
2022/06/23 05:31:14;;;;;;;6.80;6.10;;;;;;;15.26;100.00;100846.31;4941598;28;20049;-82
2022/06/23 05:33:47;;;;;;;6.50;5.90;;;;;;;15.15;100.00;100852.03;4924779;28;20047;-81
2022/06/23 05:36:19;;;;;;;6.85;6.10;;;;;;;15.14;100.00;100851.16;4959726;28;20046;-82
2022/06/23 05:38:55;;;;;;;6.78;5.85;;;;;;;15.39;100.00;100859.13;4957982;28;20503;-82
2022/06/23 05:41:37;;;;;;;6.72;5.45;;;;;;;16.74;100.00;100851.13;4976570;28;20512;-81
2022/06/23 05:44:09;;;;;;;6.13;4.57;;;;;;;19.65;88.83;100849.34;4939607;28;20042;-82
2022/06/23 05:46:40;;;;;;;4.18;3.45;;;;;;;22.40;71.42;100843.38;4926905;28;20047;-82
2022/06/23 05:49:16;;;;;;;4.97;3.83;;;;;;;24.78;58.69;100845.16;4929607;28;20046;-82
2022/06/23 05:52:14;;;;;;;4.30;2.88;;;;;;;26.31;51.37;100850.00;4974277;28;20046;-82
2022/06/23 05:55:06;;;;;;;3.90;2.83;;;;;;;27.79;46.02;100852.66;4946867;28;20052;-82
2022/06/23 05:57:43;;;;;;;4.68;3.10;;;;;;;28.13;45.90;100860.47;4945233;28;20042;-83
2022/06/23 06:00:26;;;;;;;4.20;3.13;;;;;;;28.37;43.04;100858.25;4940142;28;20413;-82
2022/06/23 06:03:11;;;;;;;27.23;5.50;;;;;;;28.56;43.90;100857.41;4957837;28;20055;-82
2022/06/23 06:05:41;;;;;;;6.88;3.30;;;;;;;28.14;42.92;100856.75;4938098;28;20043;-83
2022/06/23 06:08:19;;;;;;;5.05;3.45;;;;;;;26.60;45.96;100852.19;4960046;28;20042;-82
2022/06/23 06:10:47;;;;;;;11.15;4.60;;;;;;;26.57;44.26;100858.72;4975043;28;20039;-82
2022/06/23 06:13:21;;;;;;;7.45;3.00;;;;;;;25.88;46.46;100852.69;4960812;28;20057;-81
2022/06/23 06:15:51;;;;;;;4.43;3.35;;;;;;;25.28;48.50;100851.19;4942347;28;20393;-82
2022/06/23 06:18:22;;;;;;;3.55;3.25;;;;;;;24.66;49.26;100857.78;4960598;28;20048;-81
2022/06/23 06:20:51;;;;;;;3.53;3.20;;;;;;;24.10;51.04;100865.56;4974294;28;20407;-83
2022/06/23 06:23:26;;;;;;;4.13;3.25;;;;;;;24.00;56.19;100856.41;4960255;28;20049;-82
2022/06/23 06:25:53;;;;;;;4.95;3.05;;;;;;;23.92;50.95;100852.56;4958757;28;20053;-82
2022/06/23 06:28:22;;;;;;;3.25;2.90;;;;;;;23.98;53.37;100861.06;4944171;28;20042;-82
2022/06/23 06:31:18;;;;;;;4.47;3.00;;;;;;;23.89;56.02;100859.06;5049839;23;20379;-78
2022/06/23 06:34:13;;;;;;;5.18;3.30;;;;;;;23.87;55.16;100855.59;4975127;28;20050;-79
2022/06/23 06:36:47;;;;;;;5.03;3.58;;;;;;;23.70;52.08;100853.25;4991976;28;20047;-75
2022/06/23 06:39:33;;;;;;;3.30;2.90;;;;;;;24.16;52.70;100853.47;4963701;28;20038;-76
2022/06/23 06:42:12;;;;;;;3.80;3.13;;;;;;;24.40;52.67;100848.97;4992721;28;20144;-78
2022/06/23 06:44:42;;;;;;;3.20;2.90;;;;;;;24.44;50.52;100849.56;5008311;28;20033;-78
2022/06/23 06:47:36;;;;;;;4.85;3.40;;;;;;;24.54;51.32;100857.84;4983378;28;20070;-78
2022/06/23 06:50:17;;;;;;;4.80;3.83;;;;;;;23.99;49.58;100862.78;5009513;28;20092;-78
2022/06/23 06:52:45;;;;;;;4.85;3.58;;;;;;;23.84;51.00;100861.22;5003340;28;20048;-78
2022/06/23 06:55:48;;;;;;;4.50;3.17;;;;;;;24.23;51.95;100856.56;4994347;28;20046;-78
2022/06/23 06:58:29;;;;;;;4.75;3.00;;;;;;;24.11;51.10;100859.19;5003554;28;20048;-77
2022/06/23 07:01:01;;;;;;;3.30;3.00;;;;;;;24.28;51.11;100862.47;4976614;28;20053;-78
2022/06/23 07:03:28;;;;;;;6.85;3.60;;;;;;;24.21;51.08;100863.91;4990728;28;20546;-77
2022/06/23 07:06:06;;;;;;;5.43;3.38;;;;;;;24.36;49.54;100863.66;4963660;28;20073;-79
2022/06/23 07:09:03;;;;;;;3.03;2.78;;;;;;;24.71;50.71;100860.13;5002801;28;20093;-75
2022/06/23 07:11:53;;;;;;;7.90;3.20;;;;;;;25.01;47.32;100861.44;5020258;28;20046;-80
2022/06/23 07:14:32;;;;;;;4.90;3.17;;;;;;;25.35;47.30;100863.25;5012873;28;20053;-78
2022/06/23 07:17:02;;;;;;;3.40;2.75;;;;;;;25.15;46.99;100874.81;4994039;28;20042;-78
2022/06/23 07:19:47;;;;;;;4.93;3.33;;;;;;;25.03;49.27;100871.19;4999875;28;20038;-78
2022/06/23 07:22:33;;;;;;;3.72;3.30;;;;;;;25.24;48.06;100874.06;4997301;28;20061;-78
2022/06/23 07:25:03;;;;;;;3.40;3.10;;;;;;;25.73;48.82;100870.22;5008272;28;20080;-78
2022/06/23 07:27:39;;;;;;;3.47;2.95;;;;;;;26.13;46.53;100881.34;5011112;28;20056;-76
2022/06/23 07:30:14;;;;;;;3.58;3.00;;;;;;;26.05;44.43;100876.53;4972994;28;20069;-77
2022/06/23 07:33:03;;;;;;;3.75;3.45;;;;;;;26.36;44.95;100885.72;5011177;28;20053;-76
2022/06/23 07:35:34;;;;;;;4.05;3.00;;;;;;;26.73;43.33;100882.66;5019053;28;20525;-78
2022/06/23 07:38:07;;;;;;;3.95;3.15;;;;;;;26.57;45.94;100882.22;5009153;28;20072;-78
2022/06/23 07:40:51;;;;;;;4.32;3.30;;;;;;;26.86;43.71;100883.34;4995502;28;20041;-78
2022/06/23 07:43:46;;;;;;;4.18;3.42;;;;;;;27.26;42.02;100873.66;5004457;28;20426;-77
2022/06/23 07:46:13;;;;;;;11.43;3.92;;;;;;;27.33;43.20;100878.44;4984119;28;20052;-78
2022/06/23 07:48:40;;;;;;;3.47;3.13;;;;;;;27.43;42.21;100873.91;5010271;28;20064;-78
2022/06/23 07:51:09;;;;;;;4.68;3.08;;;;;;;27.25;42.03;100874.66;5009784;28;20085;-78
2022/06/23 07:53:38;;;;;;;5.40;3.40;;;;;;;27.15;42.97;100880.84;5001222;28;20069;-78
2022/06/23 07:56:06;;;;;;;3.63;3.25;;;;;;;27.17;42.14;100884.31;5009946;28;20437;-78
2022/06/23 07:58:36;;;;;;;4.47;2.90;;;;;;;27.59;41.85;100878.84;4992122;28;20069;-78
2022/06/23 08:01:16;;;;;;;4.25;3.30;;;;;;;27.90;41.40;100871.56;5007499;28;20530;-77
2022/06/23 08:04:14;;;;;;;3.25;2.92;;;;;;;28.16;42.28;100873.75;5003344;28;20038;-78
2022/06/23 08:06:42;;;;;;;3.45;3.03;;;;;;;28.12;38.84;100870.47;5006470;28;20061;-78
2022/06/23 08:09:46;;;;;;;3.30;3.00;;;;;;;28.25;39.59;100872.91;4992472;28;20491;-78
2022/06/23 08:18:00;;;;;;;3.20;2.88;;;;;;;27.66;41.05;100861.06;5008494;28;20058;-77
2022/06/23 08:20:29;;;;;;;5.57;3.58;;;;;;;27.98;40.20;100862.72;5008016;28;20073;-78
2022/06/23 08:22:55;;;;;;;3.53;2.60;;;;;;;28.44;39.10;100861.28;4999320;28;20042;-78
2022/06/23 08:25:23;;;;;;;3.97;3.05;;;;;;;28.34;38.43;100864.00;4978315;28;20049;-78
2022/06/23 08:27:54;;;;;;;3.03;2.72;;;;;;;28.48;38.99;100870.84;5004104;28;20039;-78
2022/06/23 08:30:23;;;;;;;3.15;2.83;;;;;;;27.94;38.78;100864.88;4968179;28;20037;-77
2022/06/23 08:32:53;;;;;;;3.03;2.72;;;;;;;28.21;40.13;100871.50;4977972;28;20046;-78
2022/06/23 08:35:29;;;;;;;4.13;3.10;;;;;;;28.56;40.14;100863.69;5007893;28;20045;-78
2022/06/23 08:37:58;;;;;;;5.70;3.35;;;;;;;28.72;39.56;100867.72;4993976;28;20397;-77
2022/06/23 08:40:40;;;;;;;3.47;2.88;;;;;;;28.68;38.45;100864.44;4994728;28;20502;-78
2022/06/23 08:43:28;;;;;;;4.28;2.90;;;;;;;28.22;39.15;100865.91;5003736;28;20521;-78
2022/06/23 08:46:19;;;;;;;3.42;3.13;;;;;;;29.22;39.24;100862.94;4996670;28;20092;-79
2022/06/23 08:49:06;;;;;;;3.70;2.80;;;;;;;29.80;36.52;100857.34;4999043;28;20092;-78
2022/06/23 08:51:58;;;;;;;4.53;3.17;;;;;;;29.56;35.94;100855.13;4973807;28;20042;-78
2022/06/23 08:54:53;;;;;;;4.82;3.30;;;;;;;29.82;35.46;100851.72;4975280;28;20052;-79
2022/06/23 08:57:25;;;;;;;3.83;3.35;;;;;;;29.35;34.88;100860.78;4992930;28;20048;-78
2022/06/23 08:59:59;;;;;;;4.75;3.03;;;;;;;29.47;34.90;100855.16;5007188;28;20041;-78
2022/06/23 09:02:46;;;;;;;3.88;2.95;;;;;;;29.74;35.85;100848.91;5005247;28;20487;-78
2022/06/23 09:05:34;;;;;;;3.28;2.97;;;;;;;29.93;34.06;100849.69;4992846;28;20527;-78
2022/06/23 09:08:23;;;;;;;3.15;2.95;;;;;;;29.26;35.08;100850.78;5014799;28;20249;-77
2022/06/23 09:11:17;;;;;;;4.57;3.15;;;;;;;29.84;34.54;100849.69;5022038;28;20053;-78
2022/06/23 09:14:21;;;;;;;4.50;2.78;;;;;;;30.00;33.95;100852.63;5002671;28;20045;-79
2022/06/23 09:17:13;;;;;;;3.35;3.05;;;;;;;29.64;32.79;100838.91;4992566;28;20132;-78
2022/06/23 09:20:05;;;;;;;3.40;3.10;;;;;;;30.13;33.27;100842.25;5014646;28;20449;-78
2022/06/23 09:22:47;;;;;;;5.18;2.92;;;;;;;29.96;32.81;100837.59;5029416;28;20053;-78
2022/06/23 09:25:44;;;;;;;3.05;2.60;;;;;;;30.30;33.72;100831.53;4994341;28;20519;-78
2022/06/23 09:28:17;;;;;;;3.42;2.83;;;;;;;30.54;33.05;100829.06;5010018;28;20052;-78
2022/06/23 09:30:56;;;;;;;4.53;2.92;;;;;;;30.14;31.44;100830.34;4993657;28;20049;-78
2022/06/23 09:33:42;;;;;;;4.47;2.80;;;;;;;30.40;31.39;100826.84;4992702;28;20057;-78
2022/06/23 09:36:46;;;;;;;3.15;2.85;;;;;;;30.87;32.15;100829.34;4977126;28;20050;-78
2022/06/23 09:39:40;;;;;;;3.53;2.85;;;;;;;31.22;29.56;100828.44;4972030;28;20459;-78
2022/06/23 09:42:29;;;;;;;3.58;3.20;;;;;;;31.18;30.29;100819.66;4983899;28;20517;-78
2022/06/23 09:45:35;;;;;;;3.65;2.80;;;;;;;29.95;31.14;100822.28;5006832;28;20506;-78
2022/06/23 09:48:15;;;;;;;3.35;2.60;;;;;;;30.00;31.48;100819.94;5008566;28;20044;-79
2022/06/23 09:51:02;;;;;;;3.60;2.92;;;;;;;30.05;31.87;100831.25;5006411;28;20030;-78
2022/06/23 09:53:40;;;;;;;3.92;2.75;;;;;;;30.67;32.67;100826.78;4999533;28;20036;-77
2022/06/23 09:56:29;;;;;;;3.28;2.92;;;;;;;29.26;33.30;100826.28;4995833;28;20067;-78
2022/06/23 09:59:16;;;;;;;3.45;2.67;;;;;;;30.06;32.53;100822.06;5000230;28;20042;-78
2022/06/23 10:02:12;;;;;;;3.47;2.53;;;;;;;30.83;31.87;100821.47;5011359;28;20033;-78
2022/06/23 10:05:10;;;;;;;4.32;3.00;;;;;;;30.79;30.60;100825.53;4980253;28;20469;-78
2022/06/23 10:07:50;;;;;;;3.95;3.03;;;;;;;30.48;31.60;100821.47;4994399;28;20038;-78
2022/06/23 10:10:32;;;;;;;3.13;2.70;;;;;;;30.17;32.20;100819.13;4991629;28;20046;-79
2022/06/23 10:13:19;;;;;;;2.70;2.50;;;;;;;30.55;31.73;100817.97;5012211;28;20434;-78
2022/06/23 10:15:59;;;;;;;2.65;2.45;;;;;;;30.78;30.18;100810.19;4995183;28;20041;-79
2022/06/23 10:19:01;;;;;;;3.20;2.53;;;;;;;30.44;31.05;100806.47;4980377;28;20112;-78
2022/06/23 10:21:37;;;;;;;3.53;2.60;;;;;;;30.67;29.82;100802.25;4995855;28;20041;-79
2022/06/23 10:24:07;;;;;;;3.75;2.60;;;;;;;31.05;30.48;100795.56;4990576;28;20391;-80
2022/06/23 10:26:45;;;;;;;3.80;2.65;;;;;;;31.40;30.07;100801.91;5010502;28;20042;-79
2022/06/23 10:29:31;;;;;;;3.45;2.25;;;;;;;31.56;29.23;100792.94;4993870;28;20104;-79
2022/06/23 10:32:06;;;;;;;2.90;2.50;;;;;;;31.48;28.37;100795.66;4993742;28;20038;-79
2022/06/23 10:35:05;;;;;;;2.83;2.20;;;;;;;31.11;27.46;100799.53;4994881;28;20041;-78
2022/06/23 10:38:09;;;;;;;7.72;2.85;;;;;;;30.77;28.55;100797.56;4997515;28;20050;-81
2022/06/23 10:41:01;;;;;;;3.70;2.70;;;;;;;30.49;27.69;100790.47;4988542;28;20053;-78
2022/06/23 10:43:56;;;;;;;2.65;2.15;;;;;;;30.24;28.19;100794.84;5005555;28;20038;-78
2022/06/23 10:46:29;;;;;;;2.95;2.08;;;;;;;30.95;28.55;100785.75;5009265;28;20600;-78
2022/06/23 10:49:02;;;;;;;2.85;2.25;;;;;;;31.03;27.94;100785.81;4987682;28;20137;-77
2022/06/23 10:51:59;;;;;;;2.85;2.60;;;;;;;30.73;28.44;100787.13;5008531;28;20033;-78
2022/06/23 10:54:32;;;;;;;2.72;2.30;;;;;;;31.10;28.97;100784.97;4976381;28;20129;-78
2022/06/23 10:57:47;;;;;;;3.50;2.20;;;;;;;31.47;28.51;100777.56;4994247;28;20541;-80
2022/06/23 11:00:36;;;;;;;5.88;2.60;;;;;;;31.56;28.87;100787.50;4985837;28;20054;-78
2022/06/23 11:03:38;;;;;;;64.60;9.48;;;;;;;31.53;27.80;100785.06;4993659;28;20046;-79
2022/06/23 11:06:16;;;;;;;6.25;3.30;;;;;;;31.58;28.91;100779.97;4985321;28;20060;-79
2022/06/23 11:08:52;;;;;;;2.60;2.30;;;;;;;31.84;27.99;100772.59;4992740;28;20038;-78
2022/06/23 11:11:48;;;;;;;2.83;2.63;;;;;;;31.76;28.60;100769.81;5012041;28;20034;-77
2022/06/23 11:14:15;;;;;;;4.38;2.78;;;;;;;31.49;28.88;100768.16;5003882;28;20053;-77
2022/06/23 11:17:00;;;;;;;3.40;2.47;;;;;;;31.86;29.36;100762.34;4995869;28;20104;-78
2022/06/23 11:20:08;;;;;;;5.07;3.15;;;;;;;31.74;28.84;100769.13;4994511;28;20889;-76
2022/06/23 11:22:38;;;;;;;3.78;2.95;;;;;;;31.66;28.52;100759.00;4934439;28;20524;-79
2022/06/23 11:25:17;;;;;;;3.00;2.70;;;;;;;31.85;28.39;100759.78;4953532;28;20043;-77
2022/06/23 11:28:18;;;;;;;4.32;2.78;;;;;;;32.12;29.46;100758.63;4955351;28;20054;-78
2022/06/23 11:30:54;;;;;;;4.82;2.72;;;;;;;31.85;30.14;100767.97;5009074;28;20053;-79
2022/06/23 11:33:29;;;;;;;3.65;2.80;;;;;;;31.63;29.03;100753.91;5022494;28;20037;-79
2022/06/23 11:36:36;;;;;;;3.50;2.60;;;;;;;31.35;29.52;100757.84;4994071;28;20041;-79
2022/06/23 11:39:08;;;;;;;3.30;3.00;;;;;;;31.42;29.99;100755.34;4953216;28;20591;-78
2022/06/23 11:41:39;;;;;;;3.80;2.40;;;;;;;31.82;29.86;100754.66;5019022;28;20053;-76
2022/06/23 11:44:28;;;;;;;2.40;2.20;;;;;;;32.00;28.90;100758.09;5028832;28;20666;-77
2022/06/23 11:47:27;;;;;;;3.63;2.85;;;;;;;31.51;28.95;100760.66;5002089;28;20046;-80
2022/06/23 11:50:03;;;;;;;3.00;2.70;;;;;;;31.68;29.61;100758.84;5004103;28;20547;-78
2022/06/23 11:52:57;;;;;;;3.05;2.35;;;;;;;31.72;28.99;100753.91;5012820;28;20050;-77
2022/06/23 11:55:44;;;;;;;2.42;2.13;;;;;;;32.09;30.17;100743.44;5010109;28;20042;-77
2022/06/23 11:58:33;;;;;;;4.00;2.67;;;;;;;32.49;29.89;100739.88;5009755;28;20042;-78
2022/06/23 12:01:20;;;;;;;3.45;2.58;;;;;;;32.54;28.66;100738.50;5010572;28;20034;-78
2022/06/23 12:04:16;;;;;;;3.80;2.38;;;;;;;32.14;29.54;100740.19;4994510;28;20418;-79
2022/06/23 12:07:20;;;;;;;3.10;2.63;;;;;;;31.85;29.22;100741.50;4995921;28;20689;-78
2022/06/23 12:09:56;;;;;;;2.53;2.33;;;;;;;31.45;29.42;100738.59;5007109;28;20045;-79
2022/06/23 12:12:23;;;;;;;3.75;2.53;;;;;;;30.65;30.27;100744.28;4995977;28;20045;-77
2022/06/23 12:14:53;;;;;;;2.97;2.42;;;;;;;30.94;30.09;100745.84;5027699;28;20056;-78
2022/06/23 12:17:32;;;;;;;2.53;2.25;;;;;;;31.10;29.90;100745.94;5002380;28;20048;-77
2022/06/23 12:20:35;;;;;;;2.25;2.03;;;;;;;31.11;30.52;100736.75;4980385;28;20393;-78
2022/06/23 12:23:23;;;;;;;2.65;2.28;;;;;;;31.21;29.82;100737.50;4986423;28;20037;-79
2022/06/23 12:26:19;;;;;;;3.28;2.60;;;;;;;30.93;28.67;100744.13;4988214;28;20049;-79
2022/06/23 12:29:00;;;;;;;2.75;2.15;;;;;;;30.95;28.65;100733.94;4959743;28;20038;-79